sensor_id;sensor_type;location;lat;lon;timestamp;temperature;humidity
30244;DHT22;64022;53.652;9.792;2023-06-14T00:00:09;23.70;36.40
30244;DHT22;64022;53.652;9.792;2023-06-14T00:02:38;23.70;36.40
30244;DHT22;64022;53.652;9.792;2023-06-14T00:05:04;23.70;36.40
30244;DHT22;64022;53.652;9.792;2023-06-14T00:07:38;23.70;36.40
30244;DHT22;64022;53.652;9.792;2023-06-14T00:10:03;23.70;36.40
30244;DHT22;64022;53.652;9.792;2023-06-14T00:12:30;23.70;36.50
30244;DHT22;64022;53.652;9.792;2023-06-14T00:14:56;23.70;36.50
30244;DHT22;64022;53.652;9.792;2023-06-14T00:17:21;23.80;36.50
30244;DHT22;64022;53.652;9.792;2023-06-14T00:19:47;23.70;36.50
30244;DHT22;64022;53.652;9.792;2023-06-14T00:22:13;23.70;36.50
30244;DHT22;64022;53.652;9.792;2023-06-14T00:24:38;23.70;36.50
30244;DHT22;64022;53.652;9.792;2023-06-14T00:27:04;23.70;36.50
30244;DHT22;64022;53.652;9.792;2023-06-14T00:29:29;23.70;36.50
30244;DHT22;64022;53.652;9.792;2023-06-14T00:31:55;23.70;36.60
30244;DHT22;64022;53.652;9.792;2023-06-14T00:34:20;23.80;36.70
30244;DHT22;64022;53.652;9.792;2023-06-14T00:36:46;23.80;36.70
30244;DHT22;64022;53.652;9.792;2023-06-14T00:39:11;23.80;36.70
30244;DHT22;64022;53.652;9.792;2023-06-14T00:41:37;23.80;36.70
30244;DHT22;64022;53.652;9.792;2023-06-14T00:44:02;23.80;36.70
30244;DHT22;64022;53.652;9.792;2023-06-14T00:46:28;23.80;36.80
30244;DHT22;64022;53.652;9.792;2023-06-14T00:48:54;23.80;36.80
30244;DHT22;64022;53.652;9.792;2023-06-14T00:51:21;23.80;36.80
30244;DHT22;64022;53.652;9.792;2023-06-14T00:53:46;23.80;36.80
30244;DHT22;64022;53.652;9.792;2023-06-14T00:56:12;23.80;36.80
30244;DHT22;64022;53.652;9.792;2023-06-14T00:58:38;23.80;36.90
30244;DHT22;64022;53.652;9.792;2023-06-14T01:01:04;23.80;36.90
30244;DHT22;64022;53.652;9.792;2023-06-14T01:03:29;23.80;36.90
30244;DHT22;64022;53.652;9.792;2023-06-14T01:08:49;23.80;36.90
30244;DHT22;64022;53.652;9.792;2023-06-14T01:11:18;23.80;36.90
30244;DHT22;64022;53.652;9.792;2023-06-14T01:13:47;23.80;36.90
30244;DHT22;64022;53.652;9.792;2023-06-14T01:16:13;23.80;37.00
30244;DHT22;64022;53.652;9.792;2023-06-14T01:18:39;23.80;37.00
30244;DHT22;64022;53.652;9.792;2023-06-14T01:21:19;23.90;37.10
30244;DHT22;64022;53.652;9.792;2023-06-14T01:23:45;23.80;37.00
30244;DHT22;64022;53.652;9.792;2023-06-14T01:26:24;23.80;37.00
30244;DHT22;64022;53.652;9.792;2023-06-14T01:28:51;23.80;37.00
30244;DHT22;64022;53.652;9.792;2023-06-14T01:31:19;23.80;37.10
30244;DHT22;64022;53.652;9.792;2023-06-14T01:33:47;23.80;37.10
30244;DHT22;64022;53.652;9.792;2023-06-14T01:36:13;23.80;37.10
30244;DHT22;64022;53.652;9.792;2023-06-14T01:38:39;23.80;37.10
30244;DHT22;64022;53.652;9.792;2023-06-14T01:41:05;23.80;37.20
30244;DHT22;64022;53.652;9.792;2023-06-14T01:43:31;23.80;37.20
30244;DHT22;64022;53.652;9.792;2023-06-14T01:45:56;23.80;37.20
30244;DHT22;64022;53.652;9.792;2023-06-14T01:48:22;23.80;37.20
30244;DHT22;64022;53.652;9.792;2023-06-14T01:50:48;23.80;37.30
30244;DHT22;64022;53.652;9.792;2023-06-14T01:53:15;23.80;37.30
30244;DHT22;64022;53.652;9.792;2023-06-14T01:55:40;23.80;37.30
30244;DHT22;64022;53.652;9.792;2023-06-14T01:58:09;23.80;37.30
30244;DHT22;64022;53.652;9.792;2023-06-14T02:00:34;23.80;37.40
30244;DHT22;64022;53.652;9.792;2023-06-14T02:03:00;23.80;37.40
30244;DHT22;64022;53.652;9.792;2023-06-14T02:05:26;23.80;37.40
30244;DHT22;64022;53.652;9.792;2023-06-14T02:07:52;23.80;37.40
30244;DHT22;64022;53.652;9.792;2023-06-14T02:10:18;23.80;37.40
30244;DHT22;64022;53.652;9.792;2023-06-14T02:12:44;23.80;37.50
30244;DHT22;64022;53.652;9.792;2023-06-14T02:15:10;23.80;37.50
30244;DHT22;64022;53.652;9.792;2023-06-14T02:17:48;23.80;37.50
30244;DHT22;64022;53.652;9.792;2023-06-14T02:20:14;23.80;37.50
30244;DHT22;64022;53.652;9.792;2023-06-14T02:22:40;23.80;37.50
30244;DHT22;64022;53.652;9.792;2023-06-14T02:25:05;23.80;37.60
30244;DHT22;64022;53.652;9.792;2023-06-14T02:27:32;23.90;37.70
30244;DHT22;64022;53.652;9.792;2023-06-14T02:29:59;23.80;37.60
30244;DHT22;64022;53.652;9.792;2023-06-14T02:32:25;23.80;37.60
30244;DHT22;64022;53.652;9.792;2023-06-14T02:34:51;23.80;37.60
30244;DHT22;64022;53.652;9.792;2023-06-14T02:37:18;23.80;37.70
30244;DHT22;64022;53.652;9.792;2023-06-14T02:39:44;23.80;37.70
30244;DHT22;64022;53.652;9.792;2023-06-14T02:42:09;23.80;37.70
30244;DHT22;64022;53.652;9.792;2023-06-14T02:44:35;23.80;37.70
30244;DHT22;64022;53.652;9.792;2023-06-14T02:47:01;23.80;37.60
30244;DHT22;64022;53.652;9.792;2023-06-14T02:49:26;23.80;38.10
30244;DHT22;64022;53.652;9.792;2023-06-14T02:51:52;23.80;37.60
30244;DHT22;64022;53.652;9.792;2023-06-14T02:54:17;23.70;37.50
30244;DHT22;64022;53.652;9.792;2023-06-14T02:56:43;23.70;37.50
30244;DHT22;64022;53.652;9.792;2023-06-14T02:59:08;23.70;37.40
30244;DHT22;64022;53.652;9.792;2023-06-14T03:01:34;23.60;37.40
30244;DHT22;64022;53.652;9.792;2023-06-14T03:04:00;23.60;37.60
30244;DHT22;64022;53.652;9.792;2023-06-14T03:06:27;23.60;37.60
30244;DHT22;64022;53.652;9.792;2023-06-14T03:08:55;23.60;37.60
30244;DHT22;64022;53.652;9.792;2023-06-14T03:11:22;23.60;37.50
30244;DHT22;64022;53.652;9.792;2023-06-14T03:13:47;23.60;37.50
30244;DHT22;64022;53.652;9.792;2023-06-14T03:16:13;23.50;37.50
30244;DHT22;64022;53.652;9.792;2023-06-14T03:18:39;23.50;37.60
30244;DHT22;64022;53.652;9.792;2023-06-14T03:21:04;23.50;37.60
30244;DHT22;64022;53.652;9.792;2023-06-14T03:23:30;23.50;37.60
30244;DHT22;64022;53.652;9.792;2023-06-14T03:25:56;23.50;37.80
30244;DHT22;64022;53.652;9.792;2023-06-14T03:28:21;23.50;37.80
30244;DHT22;64022;53.652;9.792;2023-06-14T03:30:46;23.50;37.90
30244;DHT22;64022;53.652;9.792;2023-06-14T03:33:12;23.50;38.00
30244;DHT22;64022;53.652;9.792;2023-06-14T03:35:37;23.50;38.10
30244;DHT22;64022;53.652;9.792;2023-06-14T03:38:03;23.50;38.10
30244;DHT22;64022;53.652;9.792;2023-06-14T03:40:29;23.50;38.10
30244;DHT22;64022;53.652;9.792;2023-06-14T03:42:54;23.50;38.00
30244;DHT22;64022;53.652;9.792;2023-06-14T03:45:20;23.50;38.00
30244;DHT22;64022;53.652;9.792;2023-06-14T03:47:46;23.50;38.10
30244;DHT22;64022;53.652;9.792;2023-06-14T03:50:11;23.50;38.20
30244;DHT22;64022;53.652;9.792;2023-06-14T03:52:37;23.50;38.30
30244;DHT22;64022;53.652;9.792;2023-06-14T03:55:03;23.50;38.20
30244;DHT22;64022;53.652;9.792;2023-06-14T03:57:29;23.50;38.30
30244;DHT22;64022;53.652;9.792;2023-06-14T03:59:55;23.50;38.30
30244;DHT22;64022;53.652;9.792;2023-06-14T04:02:20;23.50;38.30
30244;DHT22;64022;53.652;9.792;2023-06-14T04:04:46;23.40;38.30
30244;DHT22;64022;53.652;9.792;2023-06-14T04:07:12;23.40;38.50
30244;DHT22;64022;53.652;9.792;2023-06-14T04:09:38;23.40;38.60
30244;DHT22;64022;53.652;9.792;2023-06-14T04:12:04;23.40;38.60
30244;DHT22;64022;53.652;9.792;2023-06-14T04:14:30;23.40;38.70
30244;DHT22;64022;53.652;9.792;2023-06-14T04:16:58;23.40;38.80
30244;DHT22;64022;53.652;9.792;2023-06-14T04:19:24;23.40;38.90
30244;DHT22;64022;53.652;9.792;2023-06-14T04:21:49;23.50;39.00
30244;DHT22;64022;53.652;9.792;2023-06-14T04:24:15;23.50;39.10
30244;DHT22;64022;53.652;9.792;2023-06-14T04:26:44;23.50;39.10
30244;DHT22;64022;53.652;9.792;2023-06-14T04:29:14;23.50;39.20
30244;DHT22;64022;53.652;9.792;2023-06-14T04:31:45;23.50;39.20
30244;DHT22;64022;53.652;9.792;2023-06-14T04:34:10;23.50;39.20
30244;DHT22;64022;53.652;9.792;2023-06-14T04:36:42;23.50;39.20
30244;DHT22;64022;53.652;9.792;2023-06-14T04:39:12;23.50;39.30
30244;DHT22;64022;53.652;9.792;2023-06-14T04:41:38;23.50;39.30
30244;DHT22;64022;53.652;9.792;2023-06-14T04:44:03;23.50;39.40
30244;DHT22;64022;53.652;9.792;2023-06-14T04:46:29;23.50;39.50
30244;DHT22;64022;53.652;9.792;2023-06-14T04:48:57;23.50;39.50
30244;DHT22;64022;53.652;9.792;2023-06-14T04:51:23;23.60;39.60
30244;DHT22;64022;53.652;9.792;2023-06-14T04:53:57;23.60;39.60
30244;DHT22;64022;53.652;9.792;2023-06-14T04:56:23;23.60;39.70
30244;DHT22;64022;53.652;9.792;2023-06-14T04:58:50;23.60;39.80
30244;DHT22;64022;53.652;9.792;2023-06-14T05:01:15;23.60;40.40
30244;DHT22;64022;53.652;9.792;2023-06-14T05:03:41;23.60;39.80
30244;DHT22;64022;53.652;9.792;2023-06-14T05:06:06;23.60;39.90
30244;DHT22;64022;53.652;9.792;2023-06-14T05:08:32;23.50;39.80
30244;DHT22;64022;53.652;9.792;2023-06-14T05:10:57;23.50;39.90
30244;DHT22;64022;53.652;9.792;2023-06-14T05:13:23;23.50;40.10
30244;DHT22;64022;53.652;9.792;2023-06-14T05:15:48;23.60;40.30
30244;DHT22;64022;53.652;9.792;2023-06-14T05:18:14;23.60;40.30
30244;DHT22;64022;53.652;9.792;2023-06-14T05:20:41;23.50;40.30
30244;DHT22;64022;53.652;9.792;2023-06-14T05:23:07;23.60;40.40
30244;DHT22;64022;53.652;9.792;2023-06-14T05:25:32;23.50;40.40
30244;DHT22;64022;53.652;9.792;2023-06-14T05:27:58;23.60;40.60
30244;DHT22;64022;53.652;9.792;2023-06-14T05:30:23;23.60;40.60
30244;DHT22;64022;53.652;9.792;2023-06-14T05:32:49;23.50;40.60
30244;DHT22;64022;53.652;9.792;2023-06-14T05:35:15;23.60;40.60
30244;DHT22;64022;53.652;9.792;2023-06-14T05:37:40;23.50;40.60
30244;DHT22;64022;53.652;9.792;2023-06-14T05:40:07;23.50;40.70
30244;DHT22;64022;53.652;9.792;2023-06-14T05:42:34;23.50;40.70
30244;DHT22;64022;53.652;9.792;2023-06-14T05:44:59;23.50;40.90
30244;DHT22;64022;53.652;9.792;2023-06-14T05:47:25;23.50;41.00
30244;DHT22;64022;53.652;9.792;2023-06-14T05:49:51;23.40;41.10
30244;DHT22;64022;53.652;9.792;2023-06-14T05:52:16;23.50;41.10
30244;DHT22;64022;53.652;9.792;2023-06-14T05:54:42;23.40;41.20
30244;DHT22;64022;53.652;9.792;2023-06-14T05:57:07;23.40;41.20
30244;DHT22;64022;53.652;9.792;2023-06-14T05:59:32;23.50;41.40
30244;DHT22;64022;53.652;9.792;2023-06-14T06:01:58;23.50;41.40
30244;DHT22;64022;53.652;9.792;2023-06-14T06:04:23;23.50;41.50
30244;DHT22;64022;53.652;9.792;2023-06-14T06:06:49;23.50;41.60
30244;DHT22;64022;53.652;9.792;2023-06-14T06:09:15;23.50;41.60
30244;DHT22;64022;53.652;9.792;2023-06-14T06:11:40;23.50;41.60
30244;DHT22;64022;53.652;9.792;2023-06-14T06:14:06;23.60;41.70
30244;DHT22;64022;53.652;9.792;2023-06-14T06:16:31;23.60;41.70
30244;DHT22;64022;53.652;9.792;2023-06-14T06:18:57;23.60;41.50
30244;DHT22;64022;53.652;9.792;2023-06-14T06:21:22;23.60;41.60
30244;DHT22;64022;53.652;9.792;2023-06-14T06:23:47;23.70;41.60
30244;DHT22;64022;53.652;9.792;2023-06-14T06:26:13;23.70;41.60
30244;DHT22;64022;53.652;9.792;2023-06-14T06:28:38;23.70;41.60
30244;DHT22;64022;53.652;9.792;2023-06-14T06:31:04;23.80;41.70
30244;DHT22;64022;53.652;9.792;2023-06-14T06:33:30;23.80;41.70
30244;DHT22;64022;53.652;9.792;2023-06-14T06:35:56;23.80;41.70
30244;DHT22;64022;53.652;9.792;2023-06-14T06:38:21;23.90;41.70
30244;DHT22;64022;53.652;9.792;2023-06-14T06:40:46;23.90;41.60
30244;DHT22;64022;53.652;9.792;2023-06-14T06:43:12;23.90;41.60
30244;DHT22;64022;53.652;9.792;2023-06-14T06:45:42;23.90;41.60
30244;DHT22;64022;53.652;9.792;2023-06-14T06:48:08;23.90;41.30
30244;DHT22;64022;53.652;9.792;2023-06-14T06:50:35;23.90;41.20
30244;DHT22;64022;53.652;9.792;2023-06-14T06:53:01;24.00;41.20
30244;DHT22;64022;53.652;9.792;2023-06-14T06:55:26;23.90;40.90
30244;DHT22;64022;53.652;9.792;2023-06-14T06:57:51;24.00;41.00
30244;DHT22;64022;53.652;9.792;2023-06-14T07:00:19;24.00;40.30
30244;DHT22;64022;53.652;9.792;2023-06-14T07:02:44;23.90;40.40
30244;DHT22;64022;53.652;9.792;2023-06-14T07:05:10;24.00;40.20
30244;DHT22;64022;53.652;9.792;2023-06-14T07:07:35;24.00;40.10
30244;DHT22;64022;53.652;9.792;2023-06-14T07:10:01;24.00;40.10
30244;DHT22;64022;53.652;9.792;2023-06-14T07:12:30;24.00;40.00
30244;DHT22;64022;53.652;9.792;2023-06-14T07:14:57;24.00;40.00
30244;DHT22;64022;53.652;9.792;2023-06-14T07:17:22;24.00;39.30
30244;DHT22;64022;53.652;9.792;2023-06-14T07:19:47;24.00;39.30
30244;DHT22;64022;53.652;9.792;2023-06-14T07:22:13;24.00;39.30
30244;DHT22;64022;53.652;9.792;2023-06-14T07:24:39;24.00;39.20
30244;DHT22;64022;53.652;9.792;2023-06-14T07:27:05;24.10;39.20
30244;DHT22;64022;53.652;9.792;2023-06-14T07:29:31;24.10;39.00
30244;DHT22;64022;53.652;9.792;2023-06-14T07:31:57;24.10;38.60
30244;DHT22;64022;53.652;9.792;2023-06-14T07:34:22;24.10;38.50
30244;DHT22;64022;53.652;9.792;2023-06-14T07:36:47;24.10;38.40
30244;DHT22;64022;53.652;9.792;2023-06-14T07:39:13;24.10;38.40
30244;DHT22;64022;53.652;9.792;2023-06-14T07:41:38;24.10;38.40
30244;DHT22;64022;53.652;9.792;2023-06-14T07:44:04;24.20;38.40
30244;DHT22;64022;53.652;9.792;2023-06-14T07:46:29;24.20;38.40
30244;DHT22;64022;53.652;9.792;2023-06-14T07:48:59;24.20;38.40
30244;DHT22;64022;53.652;9.792;2023-06-14T07:51:25;24.20;38.30
30244;DHT22;64022;53.652;9.792;2023-06-14T07:53:51;24.20;38.10
30244;DHT22;64022;53.652;9.792;2023-06-14T07:56:16;24.20;38.10
30244;DHT22;64022;53.652;9.792;2023-06-14T07:58:42;24.30;38.00
30244;DHT22;64022;53.652;9.792;2023-06-14T08:01:08;24.30;37.90
30244;DHT22;64022;53.652;9.792;2023-06-14T08:03:34;24.30;37.90
30244;DHT22;64022;53.652;9.792;2023-06-14T08:05:59;24.30;37.60
30244;DHT22;64022;53.652;9.792;2023-06-14T08:08:26;24.30;37.50
30244;DHT22;64022;53.652;9.792;2023-06-14T08:10:51;24.30;37.30
30244;DHT22;64022;53.652;9.792;2023-06-14T08:13:17;24.30;37.40
30244;DHT22;64022;53.652;9.792;2023-06-14T08:15:42;24.30;37.40
30244;DHT22;64022;53.652;9.792;2023-06-14T08:18:08;24.40;37.40
30244;DHT22;64022;53.652;9.792;2023-06-14T08:20:33;24.40;37.30
30244;DHT22;64022;53.652;9.792;2023-06-14T08:23:01;24.40;37.30
30244;DHT22;64022;53.652;9.792;2023-06-14T08:25:27;24.40;37.30
30244;DHT22;64022;53.652;9.792;2023-06-14T08:27:52;24.40;37.30
30244;DHT22;64022;53.652;9.792;2023-06-14T08:30:18;24.40;37.30
30244;DHT22;64022;53.652;9.792;2023-06-14T08:32:43;24.50;37.30
30244;DHT22;64022;53.652;9.792;2023-06-14T08:35:09;24.50;37.30
30244;DHT22;64022;53.652;9.792;2023-06-14T08:37:38;24.50;37.30
30244;DHT22;64022;53.652;9.792;2023-06-14T08:40:06;24.50;37.30
30244;DHT22;64022;53.652;9.792;2023-06-14T08:42:34;24.50;37.20
30244;DHT22;64022;53.652;9.792;2023-06-14T08:45:01;24.50;37.20
30244;DHT22;64022;53.652;9.792;2023-06-14T08:47:27;24.50;37.20
30244;DHT22;64022;53.652;9.792;2023-06-14T08:49:54;24.50;37.10
30244;DHT22;64022;53.652;9.792;2023-06-14T08:52:22;24.60;37.20
30244;DHT22;64022;53.652;9.792;2023-06-14T08:54:49;24.60;37.20
30244;DHT22;64022;53.652;9.792;2023-06-14T08:57:14;24.60;37.10
30244;DHT22;64022;53.652;9.792;2023-06-14T08:59:45;24.60;37.10
30244;DHT22;64022;53.652;9.792;2023-06-14T09:02:11;24.60;37.10
30244;DHT22;64022;53.652;9.792;2023-06-14T09:04:38;24.60;37.00
30244;DHT22;64022;53.652;9.792;2023-06-14T09:07:05;24.70;37.10
30244;DHT22;64022;53.652;9.792;2023-06-14T09:09:31;24.70;37.00
30244;DHT22;64022;53.652;9.792;2023-06-14T09:11:57;24.70;37.00
30244;DHT22;64022;53.652;9.792;2023-06-14T09:14:24;24.60;36.90
30244;DHT22;64022;53.652;9.792;2023-06-14T09:16:53;24.70;36.90
30244;DHT22;64022;53.652;9.792;2023-06-14T09:19:25;24.70;36.90
30244;DHT22;64022;53.652;9.792;2023-06-14T09:21:50;24.70;36.80
30244;DHT22;64022;53.652;9.792;2023-06-14T09:24:18;24.70;36.80
30244;DHT22;64022;53.652;9.792;2023-06-14T09:26:46;24.70;36.80
30244;DHT22;64022;53.652;9.792;2023-06-14T09:29:11;24.70;36.70
30244;DHT22;64022;53.652;9.792;2023-06-14T09:31:37;24.70;36.70
30244;DHT22;64022;53.652;9.792;2023-06-14T09:34:03;24.70;36.60
30244;DHT22;64022;53.652;9.792;2023-06-14T09:36:30;24.70;36.60
30244;DHT22;64022;53.652;9.792;2023-06-14T09:38:57;24.70;36.50
30244;DHT22;64022;53.652;9.792;2023-06-14T09:41:38;24.70;36.50
30244;DHT22;64022;53.652;9.792;2023-06-14T09:44:05;24.70;36.40
30244;DHT22;64022;53.652;9.792;2023-06-14T09:46:32;24.70;36.40
30244;DHT22;64022;53.652;9.792;2023-06-14T09:48:57;24.70;36.40
30244;DHT22;64022;53.652;9.792;2023-06-14T09:51:23;24.80;36.40
30244;DHT22;64022;53.652;9.792;2023-06-14T09:53:49;24.70;36.30
30244;DHT22;64022;53.652;9.792;2023-06-14T09:56:28;24.80;36.30
30244;DHT22;64022;53.652;9.792;2023-06-14T09:58:57;24.70;36.20
30244;DHT22;64022;53.652;9.792;2023-06-14T10:01:25;24.80;36.30
30244;DHT22;64022;53.652;9.792;2023-06-14T10:04:00;24.80;36.20
30244;DHT22;64022;53.652;9.792;2023-06-14T10:06:26;24.80;36.20
30244;DHT22;64022;53.652;9.792;2023-06-14T10:08:54;24.80;36.10
30244;DHT22;64022;53.652;9.792;2023-06-14T10:11:21;24.80;36.10
30244;DHT22;64022;53.652;9.792;2023-06-14T10:13:47;24.80;36.00
30244;DHT22;64022;53.652;9.792;2023-06-14T10:16:32;24.80;36.00
30244;DHT22;64022;53.652;9.792;2023-06-14T10:19:17;24.80;35.90
30244;DHT22;64022;53.652;9.792;2023-06-14T10:24:35;24.80;35.90
30244;DHT22;64022;53.652;9.792;2023-06-14T10:27:05;24.80;35.80
30244;DHT22;64022;53.652;9.792;2023-06-14T10:30:01;24.90;35.90
30244;DHT22;64022;53.652;9.792;2023-06-14T10:32:25;24.80;35.80
30244;DHT22;64022;53.652;9.792;2023-06-14T10:34:58;24.90;35.80
30244;DHT22;64022;53.652;9.792;2023-06-14T10:37:25;24.90;35.80
30244;DHT22;64022;53.652;9.792;2023-06-14T10:39:50;24.90;35.70
30244;DHT22;64022;53.652;9.792;2023-06-14T10:42:16;24.90;35.70
30244;DHT22;64022;53.652;9.792;2023-06-14T10:44:42;24.90;35.70
30244;DHT22;64022;53.652;9.792;2023-06-14T10:49:50;24.90;35.60
30244;DHT22;64022;53.652;9.792;2023-06-14T10:52:16;24.90;35.60
30244;DHT22;64022;53.652;9.792;2023-06-14T10:57:41;24.90;35.60
30244;DHT22;64022;53.652;9.792;2023-06-14T11:00:07;24.90;35.50
30244;DHT22;64022;53.652;9.792;2023-06-14T11:05:10;24.90;35.50
30244;DHT22;64022;53.652;9.792;2023-06-14T11:07:59;24.90;35.40
30244;DHT22;64022;53.652;9.792;2023-06-14T11:10:40;24.90;35.40
30244;DHT22;64022;53.652;9.792;2023-06-14T11:13:07;24.90;35.30
30244;DHT22;64022;53.652;9.792;2023-06-14T11:15:33;24.90;35.30
30244;DHT22;64022;53.652;9.792;2023-06-14T11:18:02;24.90;35.30
30244;DHT22;64022;53.652;9.792;2023-06-14T11:20:30;24.90;35.20
30244;DHT22;64022;53.652;9.792;2023-06-14T11:22:55;24.90;35.20
30244;DHT22;64022;53.652;9.792;2023-06-14T11:25:21;24.90;35.20
30244;DHT22;64022;53.652;9.792;2023-06-14T11:27:48;24.90;35.20
30244;DHT22;64022;53.652;9.792;2023-06-14T11:30:14;25.00;35.20
30244;DHT22;64022;53.652;9.792;2023-06-14T11:32:40;25.00;35.20
30244;DHT22;64022;53.652;9.792;2023-06-14T11:35:06;25.00;35.20
30244;DHT22;64022;53.652;9.792;2023-06-14T11:37:31;25.00;35.10
30244;DHT22;64022;53.652;9.792;2023-06-14T11:40:01;25.00;35.10
30244;DHT22;64022;53.652;9.792;2023-06-14T11:42:27;25.00;35.10
30244;DHT22;64022;53.652;9.792;2023-06-14T11:44:53;25.00;35.70
30244;DHT22;64022;53.652;9.792;2023-06-14T11:47:18;25.00;35.10
30244;DHT22;64022;53.652;9.792;2023-06-14T11:49:44;25.00;35.10
30244;DHT22;64022;53.652;9.792;2023-06-14T11:52:09;25.00;35.10
30244;DHT22;64022;53.652;9.792;2023-06-14T11:54:36;25.10;35.10
30244;DHT22;64022;53.652;9.792;2023-06-14T11:57:02;25.10;35.10
30244;DHT22;64022;53.652;9.792;2023-06-14T11:59:28;25.10;35.10
30244;DHT22;64022;53.652;9.792;2023-06-14T12:01:53;25.10;35.10
30244;DHT22;64022;53.652;9.792;2023-06-14T12:04:28;25.10;35.10
30244;DHT22;64022;53.652;9.792;2023-06-14T12:06:54;25.10;35.10
30244;DHT22;64022;53.652;9.792;2023-06-14T12:09:21;25.10;35.10
30244;DHT22;64022;53.652;9.792;2023-06-14T12:11:49;25.10;35.10
30244;DHT22;64022;53.652;9.792;2023-06-14T12:14:14;25.10;35.10
30244;DHT22;64022;53.652;9.792;2023-06-14T12:16:40;25.10;35.10
30244;DHT22;64022;53.652;9.792;2023-06-14T12:19:15;25.10;35.10
30244;DHT22;64022;53.652;9.792;2023-06-14T12:21:41;25.10;35.10
30244;DHT22;64022;53.652;9.792;2023-06-14T12:24:07;25.10;35.10
30244;DHT22;64022;53.652;9.792;2023-06-14T12:26:33;25.10;35.10
30244;DHT22;64022;53.652;9.792;2023-06-14T12:28:59;25.10;35.10
30244;DHT22;64022;53.652;9.792;2023-06-14T12:31:24;25.10;35.10
30244;DHT22;64022;53.652;9.792;2023-06-14T12:33:51;25.10;35.10
30244;DHT22;64022;53.652;9.792;2023-06-14T12:36:16;25.10;35.10
30244;DHT22;64022;53.652;9.792;2023-06-14T12:38:42;25.10;35.10
30244;DHT22;64022;53.652;9.792;2023-06-14T12:41:07;25.20;35.20
30244;DHT22;64022;53.652;9.792;2023-06-14T12:43:33;25.20;35.20
30244;DHT22;64022;53.652;9.792;2023-06-14T12:45:59;25.20;35.20
30244;DHT22;64022;53.652;9.792;2023-06-14T12:48:24;25.10;35.20
30244;DHT22;64022;53.652;9.792;2023-06-14T12:50:50;25.20;35.20
30244;DHT22;64022;53.652;9.792;2023-06-14T12:53:15;25.20;35.20
30244;DHT22;64022;53.652;9.792;2023-06-14T12:55:41;25.20;35.20
30244;DHT22;64022;53.652;9.792;2023-06-14T12:58:06;25.20;35.20
30244;DHT22;64022;53.652;9.792;2023-06-14T13:00:32;25.20;35.20
30244;DHT22;64022;53.652;9.792;2023-06-14T13:02:57;25.20;35.20
30244;DHT22;64022;53.652;9.792;2023-06-14T13:05:23;25.20;35.20
30244;DHT22;64022;53.652;9.792;2023-06-14T13:07:49;25.20;35.30
30244;DHT22;64022;53.652;9.792;2023-06-14T13:10:16;25.20;35.30
30244;DHT22;64022;53.652;9.792;2023-06-14T13:12:41;25.20;35.30
30244;DHT22;64022;53.652;9.792;2023-06-14T13:15:07;25.20;35.30
30244;DHT22;64022;53.652;9.792;2023-06-14T13:17:33;25.30;35.40
30244;DHT22;64022;53.652;9.792;2023-06-14T13:20:06;25.30;35.40
30244;DHT22;64022;53.652;9.792;2023-06-14T13:22:32;25.30;35.40
30244;DHT22;64022;53.652;9.792;2023-06-14T13:24:58;25.30;35.90
30244;DHT22;64022;53.652;9.792;2023-06-14T13:27:23;25.30;35.40
30244;DHT22;64022;53.652;9.792;2023-06-14T13:29:49;25.30;35.40
30244;DHT22;64022;53.652;9.792;2023-06-14T13:32:15;25.30;35.40
30244;DHT22;64022;53.652;9.792;2023-06-14T13:34:40;25.30;35.40
30244;DHT22;64022;53.652;9.792;2023-06-14T13:37:06;25.30;35.40
30244;DHT22;64022;53.652;9.792;2023-06-14T13:39:31;25.30;35.40
30244;DHT22;64022;53.652;9.792;2023-06-14T13:41:57;25.30;35.50
30244;DHT22;64022;53.652;9.792;2023-06-14T13:44:22;25.30;35.50
30244;DHT22;64022;53.652;9.792;2023-06-14T13:46:48;25.30;35.50
30244;DHT22;64022;53.652;9.792;2023-06-14T13:49:13;25.30;35.50
30244;DHT22;64022;53.652;9.792;2023-06-14T13:51:39;25.30;35.50
30244;DHT22;64022;53.652;9.792;2023-06-14T13:54:04;25.30;35.50
30244;DHT22;64022;53.652;9.792;2023-06-14T13:56:30;25.30;35.50
30244;DHT22;64022;53.652;9.792;2023-06-14T13:58:55;25.30;35.60
30244;DHT22;64022;53.652;9.792;2023-06-14T14:01:21;25.40;35.60
30244;DHT22;64022;53.652;9.792;2023-06-14T14:03:48;25.30;35.60
30244;DHT22;64022;53.652;9.792;2023-06-14T14:06:14;25.40;35.70
30244;DHT22;64022;53.652;9.792;2023-06-14T14:08:40;25.40;35.70
30244;DHT22;64022;53.652;9.792;2023-06-14T14:11:06;25.30;35.60
30244;DHT22;64022;53.652;9.792;2023-06-14T14:13:33;25.40;35.70
30244;DHT22;64022;53.652;9.792;2023-06-14T14:15:58;25.40;35.70
30244;DHT22;64022;53.652;9.792;2023-06-14T14:18:24;25.40;35.80
30244;DHT22;64022;53.652;9.792;2023-06-14T14:20:49;25.40;35.70
30244;DHT22;64022;53.652;9.792;2023-06-14T14:23:15;25.40;35.80
30244;DHT22;64022;53.652;9.792;2023-06-14T14:25:40;25.40;35.80
30244;DHT22;64022;53.652;9.792;2023-06-14T14:28:06;25.40;35.80
30244;DHT22;64022;53.652;9.792;2023-06-14T14:30:31;25.40;35.80
30244;DHT22;64022;53.652;9.792;2023-06-14T14:32:58;25.40;35.80
30244;DHT22;64022;53.652;9.792;2023-06-14T14:35:23;25.40;35.80
30244;DHT22;64022;53.652;9.792;2023-06-14T14:37:51;25.40;35.90
30244;DHT22;64022;53.652;9.792;2023-06-14T14:40:16;25.40;35.90
30244;DHT22;64022;53.652;9.792;2023-06-14T14:42:42;25.50;36.00
30244;DHT22;64022;53.652;9.792;2023-06-14T14:45:07;25.40;35.90
30244;DHT22;64022;53.652;9.792;2023-06-14T14:47:33;25.50;36.00
30244;DHT22;64022;53.652;9.792;2023-06-14T14:49:58;25.50;36.00
30244;DHT22;64022;53.652;9.792;2023-06-14T14:52:24;25.50;36.00
30244;DHT22;64022;53.652;9.792;2023-06-14T14:54:50;25.50;36.00
30244;DHT22;64022;53.652;9.792;2023-06-14T14:57:15;25.50;36.00
30244;DHT22;64022;53.652;9.792;2023-06-14T14:59:41;25.50;36.00
30244;DHT22;64022;53.652;9.792;2023-06-14T15:02:06;25.50;36.00
30244;DHT22;64022;53.652;9.792;2023-06-14T15:04:32;25.50;36.00
30244;DHT22;64022;53.652;9.792;2023-06-14T15:06:57;25.50;36.10
30244;DHT22;64022;53.652;9.792;2023-06-14T15:09:23;25.50;36.10
30244;DHT22;64022;53.652;9.792;2023-06-14T15:11:48;25.50;36.10
30244;DHT22;64022;53.652;9.792;2023-06-14T15:14:13;25.50;36.10
30244;DHT22;64022;53.652;9.792;2023-06-14T15:16:40;25.50;36.10
30244;DHT22;64022;53.652;9.792;2023-06-14T15:19:05;25.50;36.10
30244;DHT22;64022;53.652;9.792;2023-06-14T15:21:31;25.50;36.10
30244;DHT22;64022;53.652;9.792;2023-06-14T15:23:56;25.50;36.10
30244;DHT22;64022;53.652;9.792;2023-06-14T15:26:22;25.50;36.10
30244;DHT22;64022;53.652;9.792;2023-06-14T15:28:49;25.50;36.20
30244;DHT22;64022;53.652;9.792;2023-06-14T15:31:15;25.50;36.20
30244;DHT22;64022;53.652;9.792;2023-06-14T15:33:40;25.60;36.30
30244;DHT22;64022;53.652;9.792;2023-06-14T15:36:06;25.60;36.30
30244;DHT22;64022;53.652;9.792;2023-06-14T15:38:34;25.50;36.20